Time;durP1;ratioP1;P1;durP2;ratioP2;P2;SDS_P1;SDS_P2;PMS_P1;PMS_P2;Temp;Humidity;BMP_temperature;BMP_pressure;BME280_temperature;BME280_humidity;BME280_pressure;Samples;Min_cycle;Max_cycle;Signal;HPM_P1;HPM_P2
2021/10/31 00:00:20;;;;;;;11.50;10.30;;;13.30;99.90;;;;;;5091869;28;20193;-73
2021/10/31 00:02:45;;;;;;;11.17;9.27;;;13.30;99.90;;;;;;5093674;28;20165;-72
2021/10/31 00:05:11;;;;;;;10.07;9.00;;;13.30;99.90;;;;;;5093135;28;20181;-72
2021/10/31 00:07:37;;;;;;;11.03;10.00;;;13.30;99.90;;;;;;5075172;28;20645;-74
2021/10/31 00:10:04;;;;;;;12.60;10.27;;;13.30;99.90;;;;;;5074685;28;20194;-72
2021/10/31 00:12:30;;;;;;;10.47;9.23;;;13.30;99.90;;;;;;5074513;28;20421;-72
2021/10/31 00:14:56;;;;;;;12.10;10.70;;;13.30;99.90;;;;;;5074292;28;20403;-72
2021/10/31 00:17:21;;;;;;;10.53;9.53;;;13.30;99.90;;;;;;5074157;28;20415;-73
2021/10/31 00:19:47;;;;;;;12.07;10.83;;;13.20;99.90;;;;;;5073429;28;20205;-74
2021/10/31 00:22:13;;;;;;;13.13;11.10;;;13.20;99.90;;;;;;5074427;28;20245;-73
2021/10/31 00:24:39;;;;;;;10.93;9.73;;;13.10;99.90;;;;;;5074304;28;20410;-75
2021/10/31 00:27:05;;;;;;;11.00;9.90;;;13.10;99.90;;;;;;5073910;28;20411;-71
2021/10/31 00:29:30;;;;;;;11.80;10.60;;;13.10;99.90;;;;;;5074205;28;20219;-72
2021/10/31 00:31:56;;;;;;;11.03;9.93;;;13.10;99.90;;;;;;5074316;28;20247;-72
2021/10/31 00:34:22;;;;;;;11.10;9.70;;;13.20;99.90;;;;;;5056127;28;20626;-72
2021/10/31 00:36:47;;;;;;;14.00;10.20;;;13.20;99.90;;;;;;5073796;28;20174;-72
2021/10/31 00:39:13;;;;;;;11.60;10.40;;;13.20;99.90;;;;;;5073884;28;20707;-72
2021/10/31 00:41:38;;;;;;;11.30;10.20;;;13.10;99.90;;;;;;5073566;28;20299;-72
2021/10/31 00:44:04;;;;;;;11.30;9.83;;;13.10;99.90;;;;;;5073910;28;20253;-73
2021/10/31 00:46:30;;;;;;;12.07;10.77;;;13.10;99.90;;;;;;5072794;28;20417;-73
2021/10/31 00:48:55;;;;;;;10.90;9.80;;;13.10;99.90;;;;;;5073769;28;20820;-72
2021/10/31 00:51:21;;;;;;;10.77;9.73;;;13.00;99.90;;;;;;5073715;28;20205;-72
2021/10/31 00:53:48;;;;;;;11.53;10.43;;;13.00;99.90;;;;;;5073762;28;20539;-72
2021/10/31 00:56:14;;;;;;;10.53;9.53;;;13.00;99.90;;;;;;5073205;28;20458;-72
2021/10/31 00:58:40;;;;;;;10.33;9.20;;;13.00;99.90;;;;;;5073573;28;21004;-72
2021/10/31 01:01:05;;;;;;;11.30;9.40;;;13.00;99.90;;;;;;5073393;28;20185;-72
2021/10/31 01:03:31;;;;;;;10.93;9.37;;;12.90;99.90;;;;;;5073299;28;20169;-72
2021/10/31 01:06:15;;;;;;;12.60;9.57;;;12.90;99.90;;;;;;5073131;28;20176;-72
2021/10/31 01:08:50;;;;;;;9.97;8.47;;;12.90;99.90;;;;;;5073531;28;20252;-72
2021/10/31 01:11:49;;;;;;;14.53;10.30;;;12.80;99.90;;;;;;5073269;28;20447;-73
2021/10/31 01:14:30;;;;;;;11.73;9.90;;;12.90;99.90;;;;;;5073547;28;20400;-73
2021/10/31 01:17:32;;;;;;;11.53;10.33;;;12.80;99.90;;;;;;5073036;28;20775;-73
2021/10/31 01:20:42;;;;;;;12.27;10.77;;;12.70;99.90;;;;;;5073125;28;20508;-73
2021/10/31 01:23:10;;;;;;;11.80;10.57;;;12.70;99.90;;;;;;5064929;28;20419;-72
2021/10/31 01:26:15;;;;;;;12.57;11.27;;;12.70;99.90;;;;;;5054901;28;20411;-72
2021/10/31 01:28:59;;;;;;;15.00;10.50;;;12.70;99.90;;;;;;5073010;28;20395;-72
2021/10/31 01:32:00;;;;;;;12.00;10.80;;;12.70;99.90;;;;;;5072654;28;20539;-72
2021/10/31 01:35:02;;;;;;;11.30;10.00;;;12.60;99.90;;;;;;5041405;28;20759;-72
2021/10/31 01:37:48;;;;;;;13.93;10.00;;;12.60;99.90;;;;;;5072787;28;20488;-72
2021/10/31 01:40:20;;;;;;;16.70;11.20;;;12.60;99.90;;;;;;5072365;28;20818;-72
2021/10/31 01:43:00;;;;;;;12.67;10.50;;;12.60;99.90;;;;;;5072647;28;20403;-72
2021/10/31 01:45:48;;;;;;;13.83;11.60;;;12.70;99.90;;;;;;5072410;28;20431;-73
2021/10/31 01:48:31;;;;;;;12.93;10.50;;;12.60;99.90;;;;;;5072558;28;20411;-72
2021/10/31 01:51:06;;;;;;;12.10;10.17;;;12.70;99.90;;;;;;5072410;28;20475;-72
2021/10/31 01:53:36;;;;;;;15.90;12.00;;;12.60;99.90;;;;;;5072892;28;20896;-72
2021/10/31 01:56:10;;;;;;;14.27;12.77;;;12.60;99.90;;;;;;5072177;28;20417;-72
2021/10/31 01:58:41;;;;;;;16.83;12.20;;;12.70;99.90;;;;;;5072374;28;20476;-73
2021/10/31 02:01:08;;;;;;;14.67;12.40;;;12.70;99.90;;;;;;5072392;28;20435;-73
2021/10/31 02:03:37;;;;;;;12.57;10.70;;;12.70;99.90;;;;;;5071862;28;20407;-72
2021/10/31 02:06:05;;;;;;;14.23;11.33;;;12.70;99.90;;;;;;5071977;28;20404;-73
2021/10/31 02:08:34;;;;;;;12.40;11.10;;;12.70;99.90;;;;;;5072172;28;20819;-73
2021/10/31 02:11:00;;;;;;;12.63;10.93;;;12.80;99.90;;;;;;5071785;28;20902;-73
2021/10/31 02:13:28;;;;;;;12.00;10.10;;;12.70;99.90;;;;;;5071941;28;20408;-72
2021/10/31 02:15:55;;;;;;;10.70;9.47;;;12.70;99.90;;;;;;5072034;28;20416;-72
2021/10/31 02:18:24;;;;;;;12.53;9.90;;;12.70;99.90;;;;;;5071892;28;20408;-72
2021/10/31 02:20:57;;;;;;;12.20;10.50;;;12.70;99.90;;;;;;5071852;28;20424;-72
2021/10/31 02:23:23;;;;;;;11.53;10.00;;;12.70;99.90;;;;;;5072207;28;20779;-73
2021/10/31 02:25:50;;;;;;;13.90;11.13;;;12.70;99.90;;;;;;5071585;28;20404;-72
2021/10/31 02:28:16;;;;;;;14.90;10.73;;;12.70;99.90;;;;;;5071813;28;20408;-73
2021/10/31 02:30:42;;;;;;;12.57;10.27;;;12.70;99.90;;;;;;5071622;28;20487;-73
2021/10/31 02:33:08;;;;;;;10.70;8.57;;;12.60;99.90;;;;;;5071576;28;20423;-72
2021/10/31 02:35:34;;;;;;;8.60;7.73;;;12.70;99.90;;;;;;5071529;28;20400;-73
2021/10/31 02:38:00;;;;;;;8.93;7.83;;;12.70;99.90;;;;;;5053738;28;20419;-71
2021/10/31 02:40:26;;;;;;;7.83;6.77;;;12.80;99.90;;;;;;5078039;22;20335;-69
2021/10/31 02:42:52;;;;;;;10.93;7.53;;;12.80;99.90;;;;;;4999986;28;20266;-72
2021/10/31 02:45:18;;;;;;;7.93;6.83;;;12.80;99.90;;;;;;4989741;28;20400;-72
2021/10/31 02:47:56;;;;;;;8.43;6.80;;;12.90;99.90;;;;;;4990067;28;20421;-72
2021/10/31 02:50:50;;;;;;;8.33;6.57;;;12.80;99.90;;;;;;4990230;28;20472;-71
2021/10/31 02:53:33;;;;;;;7.05;6.20;;;12.90;99.90;;;;;;4992355;28;20424;-71
2021/10/31 02:56:17;;;;;;;5.83;5.33;;;12.90;99.90;;;;;;4989638;28;20214;-72
2021/10/31 02:59:08;;;;;;;7.50;6.07;;;13.00;99.90;;;;;;4989943;28;20415;-71
2021/10/31 03:01:35;;;;;;;5.70;5.07;;;13.00;99.90;;;;;;4989697;28;20519;-72
2021/10/31 03:04:01;;;;;;;8.13;6.10;;;13.00;99.90;;;;;;4989470;28;20568;-72
2021/10/31 03:06:26;;;;;;;8.57;6.60;;;12.90;99.90;;;;;;4989406;28;20951;-72
2021/10/31 03:08:52;;;;;;;7.87;7.10;;;12.90;99.90;;;;;;4989647;28;20919;-71
2021/10/31 03:11:18;;;;;;;9.60;7.17;;;13.00;99.90;;;;;;4988402;28;20232;-72
2021/10/31 03:13:44;;;;;;;7.90;7.20;;;12.90;99.90;;;;;;4989809;28;20370;-71
2021/10/31 03:16:10;;;;;;;7.97;7.07;;;12.90;99.90;;;;;;4989043;28;20435;-71
2021/10/31 03:18:36;;;;;;;12.77;6.40;;;12.90;99.90;;;;;;4989569;28;20766;-70
2021/10/31 03:21:02;;;;;;;11.73;6.90;;;12.90;99.90;;;;;;4989382;28;20195;-71
2021/10/31 03:23:28;;;;;;;7.43;6.13;;;12.90;99.90;;;;;;4989414;28;20430;-71
2021/10/31 03:25:53;;;;;;;7.80;6.63;;;12.90;99.90;;;;;;4988973;28;20419;-71
2021/10/31 03:28:19;;;;;;;9.97;7.10;;;13.00;99.90;;;;;;4989433;28;20176;-71
2021/10/31 03:30:45;;;;;;;9.10;7.20;;;13.00;99.90;;;;;;4989447;28;20208;-72
2021/10/31 03:33:12;;;;;;;8.97;6.90;;;12.90;99.90;;;;;;4989436;28;20229;-70
2021/10/31 03:35:38;;;;;;;9.30;7.27;;;12.90;99.90;;;;;;4989032;28;20850;-71
2021/10/31 03:38:04;;;;;;;8.70;7.33;;;13.00;99.90;;;;;;4989000;28;20490;-69
2021/10/31 03:40:30;;;;;;;9.43;7.47;;;13.00;99.90;;;;;;4988887;28;20632;-70
2021/10/31 03:42:56;;;;;;;7.60;6.90;;;12.90;99.90;;;;;;4989330;28;20435;-70
2021/10/31 03:45:21;;;;;;;7.97;7.27;;;12.90;99.90;;;;;;4992899;28;20883;-69
2021/10/31 03:47:48;;;;;;;7.93;6.80;;;12.90;99.90;;;;;;5001736;28;20180;-70
2021/10/31 03:50:16;;;;;;;10.73;7.60;;;12.90;99.90;;;;;;4987767;28;20522;-70
2021/10/31 03:52:43;;;;;;;8.23;7.20;;;12.90;99.90;;;;;;4988527;28;20412;-70
2021/10/31 03:55:09;;;;;;;8.13;6.60;;;12.90;99.90;;;;;;4992412;28;20422;-69
2021/10/31 03:57:36;;;;;;;7.60;6.30;;;12.90;99.90;;;;;;4992642;28;20400;-69
2021/10/31 04:00:07;;;;;;;6.10;5.43;;;12.90;99.90;;;;;;4991300;28;20441;-70
2021/10/31 04:02:33;;;;;;;6.63;5.30;;;12.90;99.90;;;;;;4991392;28;20422;-70
2021/10/31 04:04:59;;;;;;;7.47;5.90;;;12.90;99.90;;;;;;4991919;28;20411;-70
2021/10/31 04:07:24;;;;;;;7.70;6.80;;;12.90;99.90;;;;;;4992280;28;20420;-71
2021/10/31 04:09:50;;;;;;;8.10;6.13;;;12.90;99.90;;;;;;4992645;28;20539;-71
2021/10/31 04:12:15;;;;;;;7.40;6.40;;;12.90;99.90;;;;;;4992378;28;20204;-72
2021/10/31 04:14:41;;;;;;;7.13;5.20;;;12.90;99.90;;;;;;4993698;28;20204;-71
2021/10/31 04:17:06;;;;;;;6.70;5.87;;;12.90;99.90;;;;;;4992113;28;20229;-71
2021/10/31 04:19:32;;;;;;;6.40;5.70;;;12.90;99.90;;;;;;4991760;28;20172;-72
2021/10/31 04:21:57;;;;;;;7.77;5.67;;;12.90;99.90;;;;;;4991868;28;20708;-71
2021/10/31 04:24:23;;;;;;;7.90;7.10;;;12.80;99.90;;;;;;4991967;28;20260;-72
2021/10/31 04:26:53;;;;;;;9.87;8.93;;;12.80;99.90;;;;;;4991509;28;20177;-71
2021/10/31 04:29:18;;;;;;;9.27;8.20;;;12.70;99.90;;;;;;4992060;28;20172;-72
2021/10/31 04:31:44;;;;;;;10.60;7.70;;;12.60;99.90;;;;;;4991741;28;20465;-71
2021/10/31 04:34:20;;;;;;;9.00;7.73;;;12.50;99.90;;;;;;4992150;28;20583;-71
2021/10/31 04:36:45;;;;;;;8.47;7.57;;;12.50;99.90;;;;;;4990736;28;20179;-71
2021/10/31 04:39:12;;;;;;;8.27;7.33;;;12.50;99.90;;;;;;4991731;28;20498;-70
2021/10/31 04:41:39;;;;;;;9.07;7.40;;;12.50;99.90;;;;;;4991556;28;20215;-71
2021/10/31 04:44:04;;;;;;;9.17;7.47;;;12.40;99.90;;;;;;4991724;28;20419;-71
2021/10/31 04:46:30;;;;;;;8.10;7.03;;;12.40;99.90;;;;;;4990127;28;20502;-71
2021/10/31 04:48:56;;;;;;;7.13;6.27;;;12.30;99.90;;;;;;4991815;28;20916;-71
2021/10/31 04:51:22;;;;;;;7.57;6.53;;;12.30;99.90;;;;;;4991412;28;21002;-71
2021/10/31 04:53:47;;;;;;;7.23;6.53;;;12.30;99.90;;;;;;4991609;28;20173;-71
2021/10/31 04:56:13;;;;;;;7.70;6.90;;;12.30;99.90;;;;;;4990075;28;20204;-71
2021/10/31 04:58:38;;;;;;;8.13;6.17;;;12.20;99.90;;;;;;4991763;28;20176;-71
2021/10/31 05:01:04;;;;;;;7.63;6.53;;;12.20;99.90;;;;;;4990228;28;20200;-71
2021/10/31 05:03:29;;;;;;;7.27;6.27;;;12.20;99.90;;;;;;4991577;28;20640;-71
2021/10/31 05:05:55;;;;;;;7.07;6.37;;;12.20;99.90;;;;;;4989296;28;20207;-71
2021/10/31 05:08:20;;;;;;;5.60;5.10;;;12.20;99.90;;;;;;4991486;28;20202;-71
2021/10/31 05:10:46;;;;;;;6.53;5.80;;;12.10;99.90;;;;;;4991420;28;20206;-71
2021/10/31 05:13:11;;;;;;;8.50;5.63;;;12.10;99.90;;;;;;4991686;28;20203;-71
2021/10/31 05:15:38;;;;;;;6.50;5.33;;;12.10;99.90;;;;;;4991061;28;20173;-71
2021/10/31 05:18:04;;;;;;;5.90;5.30;;;12.00;99.90;;;;;;4991142;28;20179;-71
2021/10/31 05:20:29;;;;;;;8.83;6.73;;;12.00;99.90;;;;;;4990061;28;20435;-71
2021/10/31 05:22:55;;;;;;;6.30;5.80;;;11.90;99.90;;;;;;4991355;28;20196;-71
2021/10/31 05:25:20;;;;;;;6.33;5.73;;;11.80;99.90;;;;;;4990553;28;20183;-71
2021/10/31 05:27:46;;;;;;;6.60;6.00;;;11.80;99.90;;;;;;4991150;28;20187;-71
2021/10/31 05:30:13;;;;;;;9.23;6.73;;;11.70;99.90;;;;;;4991075;28;20195;-71
2021/10/31 05:32:40;;;;;;;6.03;5.23;;;11.60;99.90;;;;;;4990825;28;20168;-71
2021/10/31 05:35:08;;;;;;;7.13;6.30;;;11.60;99.90;;;;;;4990598;28;20800;-71
2021/10/31 05:37:45;;;;;;;6.87;6.10;;;11.60;99.90;;;;;;4993542;28;20412;-71
2021/10/31 05:40:14;;;;;;;6.93;6.20;;;11.60;99.90;;;;;;4990953;28;20414;-71
2021/10/31 05:42:40;;;;;;;8.10;7.00;;;11.60;99.90;;;;;;4990883;28;20488;-71
2021/10/31 05:45:08;;;;;;;6.53;5.90;;;11.60;99.90;;;;;;4990893;28;20437;-71
2021/10/31 05:47:41;;;;;;;10.80;8.10;;;11.60;99.90;;;;;;4990596;28;20412;-70
2021/10/31 05:50:09;;;;;;;9.20;7.80;;;11.60;99.90;;;;;;4990661;28;20488;-71
2021/10/31 05:52:36;;;;;;;8.30;7.50;;;11.60;99.90;;;;;;4989432;28;20459;-71
2021/10/31 05:55:03;;;;;;;9.43;8.33;;;11.70;99.90;;;;;;4990426;28;20811;-70
2021/10/31 05:57:29;;;;;;;8.23;7.43;;;11.70;99.90;;;;;;4990719;28;20439;-71
2021/10/31 05:59:55;;;;;;;10.07;7.90;;;11.70;99.90;;;;;;4990848;28;20830;-71
2021/10/31 06:02:20;;;;;;;8.80;7.90;;;11.70;99.90;;;;;;4990631;28;20407;-71
2021/10/31 06:04:46;;;;;;;9.10;7.83;;;11.70;99.90;;;;;;4990117;28;20255;-70
2021/10/31 06:07:12;;;;;;;9.67;8.10;;;11.80;99.90;;;;;;4989297;28;20187;-70
2021/10/31 06:09:38;;;;;;;8.40;7.47;;;11.80;99.90;;;;;;4990761;28;20431;-70
2021/10/31 06:12:05;;;;;;;9.93;8.67;;;11.70;99.90;;;;;;4991003;28;20455;-71
2021/10/31 06:14:32;;;;;;;9.63;7.50;;;11.70;99.90;;;;;;4991862;28;20652;-69
2021/10/31 06:16:58;;;;;;;8.27;7.40;;;11.70;99.90;;;;;;4990233;28;20443;-72
2021/10/31 06:19:23;;;;;;;9.17;7.53;;;11.60;99.90;;;;;;4991760;28;20449;-71
2021/10/31 06:21:49;;;;;;;8.27;6.63;;;11.60;99.90;;;;;;4990828;28;20199;-71
2021/10/31 06:24:14;;;;;;;8.13;7.33;;;11.70;99.90;;;;;;4991650;28;20272;-71
2021/10/31 06:26:40;;;;;;;8.90;6.73;;;11.70;99.90;;;;;;4990302;28;20180;-72
2021/10/31 06:29:05;;;;;;;7.50;6.83;;;11.70;99.90;;;;;;4988881;28;20263;-71
2021/10/31 06:31:31;;;;;;;6.97;5.80;;;11.80;99.90;;;;;;4990689;28;20196;-71
2021/10/31 06:33:56;;;;;;;7.17;6.27;;;11.80;99.90;;;;;;4991438;28;20219;-72
2021/10/31 06:36:22;;;;;;;8.00;6.03;;;11.90;99.90;;;;;;4991514;28;20549;-71
2021/10/31 06:38:48;;;;;;;6.70;6.10;;;11.90;99.90;;;;;;4993298;28;20194;-69
2021/10/31 06:41:13;;;;;;;6.70;5.80;;;11.90;99.90;;;;;;4992666;28;20220;-70
2021/10/31 06:43:39;;;;;;;7.60;6.37;;;11.90;99.90;;;;;;4990789;28;20191;-71
2021/10/31 06:46:04;;;;;;;7.00;6.40;;;11.90;99.90;;;;;;4990895;28;20545;-70
2021/10/31 06:48:30;;;;;;;5.80;5.10;;;11.90;99.90;;;;;;4989686;28;20198;-70
2021/10/31 06:50:56;;;;;;;5.00;4.50;;;11.90;99.90;;;;;;4989728;28;20204;-69
2021/10/31 06:53:22;;;;;;;5.50;5.00;;;11.90;99.90;;;;;;4988708;28;20560;-71
2021/10/31 06:55:48;;;;;;;5.27;4.37;;;11.90;99.90;;;;;;4988296;28;20434;-71
2021/10/31 06:58:14;;;;;;;5.03;4.10;;;11.90;99.90;;;;;;4990021;28;20849;-71
2021/10/31 07:00:39;;;;;;;4.43;4.10;;;11.90;99.90;;;;;;4989789;28;20196;-71
2021/10/31 07:03:05;;;;;;;5.57;4.50;;;11.90;99.90;;;;;;4989734;28;20195;-71
2021/10/31 07:05:31;;;;;;;5.93;3.67;;;11.90;99.90;;;;;;4989822;28;20583;-72
2021/10/31 07:07:56;;;;;;;4.07;3.63;;;11.90;99.90;;;;;;4988806;28;20660;-71
2021/10/31 07:10:22;;;;;;;4.60;4.10;;;11.90;99.90;;;;;;4989661;28;20439;-72
2021/10/31 07:12:48;;;;;;;4.40;4.00;;;12.00;99.90;;;;;;4988306;28;20497;-71
2021/10/31 07:15:13;;;;;;;3.90;3.60;;;12.00;99.90;;;;;;4989095;28;20657;-72
2021/10/31 07:17:39;;;;;;;4.23;3.83;;;12.00;99.90;;;;;;4988396;28;20176;-71
2021/10/31 07:20:06;;;;;;;4.20;3.57;;;12.00;99.90;;;;;;4989495;28;20229;-72
2021/10/31 07:22:32;;;;;;;4.20;3.80;;;12.10;99.90;;;;;;4989667;28;20607;-72
2021/10/31 07:24:59;;;;;;;4.83;3.73;;;12.10;99.90;;;;;;4988138;28;20504;-71
2021/10/31 07:27:24;;;;;;;4.53;4.10;;;12.10;99.90;;;;;;4989416;28;20556;-72
2021/10/31 07:29:50;;;;;;;4.83;4.33;;;12.10;99.90;;;;;;4992757;28;20411;-72
2021/10/31 07:32:17;;;;;;;4.13;3.83;;;12.10;99.90;;;;;;4992541;28;20207;-72
2021/10/31 07:34:44;;;;;;;6.13;3.93;;;12.20;99.90;;;;;;4993004;28;20251;-72
2021/10/31 07:37:09;;;;;;;4.17;3.87;;;12.20;99.90;;;;;;4992915;28;20463;-71
2021/10/31 07:39:35;;;;;;;3.87;3.47;;;12.20;99.90;;;;;;4992460;28;20427;-71
2021/10/31 07:42:01;;;;;;;3.63;3.43;;;12.20;99.90;;;;;;4992865;28;20243;-72
2021/10/31 07:44:27;;;;;;;4.00;3.70;;;12.30;99.90;;;;;;4992941;28;20658;-72
2021/10/31 07:46:52;;;;;;;7.10;3.50;;;12.30;99.90;;;;;;4992319;28;20488;-71
2021/10/31 07:49:18;;;;;;;3.53;3.23;;;12.40;99.90;;;;;;4992817;28;20272;-71
2021/10/31 07:51:44;;;;;;;4.27;3.97;;;12.40;99.90;;;;;;4992663;28;20606;-71
2021/10/31 07:54:10;;;;;;;3.90;3.60;;;12.40;99.90;;;;;;4992880;28;20214;-70
2021/10/31 07:56:36;;;;;;;4.40;3.43;;;12.40;99.90;;;;;;4992340;28;20415;-72
2021/10/31 07:59:03;;;;;;;3.97;3.63;;;12.40;99.90;;;;;;4992457;28;20503;-71
2021/10/31 08:01:29;;;;;;;4.00;3.70;;;12.40;99.90;;;;;;4992627;28;20438;-73
2021/10/31 08:03:56;;;;;;;3.27;3.07;;;12.40;99.90;;;;;;4995197;28;20762;-73
2021/10/31 08:06:23;;;;;;;3.33;3.13;;;12.40;99.90;;;;;;4991177;28;20419;-71
2021/10/31 08:08:49;;;;;;;3.70;3.17;;;12.40;99.90;;;;;;4991398;28;20415;-71
2021/10/31 08:11:15;;;;;;;4.40;2.80;;;12.40;99.90;;;;;;4992375;28;20451;-71
2021/10/31 08:13:41;;;;;;;5.13;3.20;;;12.40;99.90;;;;;;4992277;28;20411;-72
2021/10/31 08:16:07;;;;;;;3.10;2.90;;;12.40;99.90;;;;;;4991828;28;20196;-71
2021/10/31 08:18:33;;;;;;;3.47;2.60;;;12.50;99.90;;;;;;4991257;28;20962;-70
2021/10/31 08:20:59;;;;;;;3.03;2.70;;;12.50;99.90;;;;;;4992504;28;20939;-72
2021/10/31 08:23:24;;;;;;;2.70;2.50;;;12.60;99.90;;;;;;4992337;28;20222;-74
2021/10/31 08:25:50;;;;;;;2.50;2.30;;;12.60;99.90;;;;;;4991964;28;20605;-71
2021/10/31 08:28:18;;;;;;;3.27;2.80;;;12.60;99.90;;;;;;4992475;28;20196;-72
2021/10/31 08:30:48;;;;;;;2.57;2.37;;;12.60;99.90;;;;;;4992120;28;20825;-72
2021/10/31 08:33:23;;;;;;;2.63;2.43;;;12.60;99.90;;;;;;4992294;28;20915;-73
2021/10/31 08:35:50;;;;;;;2.60;2.40;;;12.70;99.90;;;;;;4991850;28;20511;-71
2021/10/31 08:38:16;;;;;;;3.20;2.90;;;12.80;99.90;;;;;;4991201;28;20397;-71
2021/10/31 08:40:43;;;;;;;2.90;2.70;;;12.80;99.90;;;;;;5024396;23;20240;-73
2021/10/31 08:43:10;;;;;;;2.93;2.73;;;12.80;99.90;;;;;;5085464;28;20477;-71
2021/10/31 08:45:38;;;;;;;3.63;2.43;;;12.90;99.90;;;;;;5073569;28;20396;-71
2021/10/31 08:48:04;;;;;;;4.90;2.77;;;13.00;99.90;;;;;;5073774;28;20916;-72
2021/10/31 08:50:30;;;;;;;3.10;2.80;;;13.00;99.90;;;;;;5073892;28;20396;-71
2021/10/31 08:52:55;;;;;;;2.80;2.60;;;13.10;99.90;;;;;;5073692;28;20415;-72
2021/10/31 08:55:21;;;;;;;3.07;2.80;;;13.20;99.90;;;;;;5073478;28;20650;-72
2021/10/31 08:57:46;;;;;;;3.30;2.80;;;13.20;99.90;;;;;;5074564;28;20180;-74
2021/10/31 09:00:14;;;;;;;2.67;2.47;;;13.30;99.90;;;;;;5056149;28;20529;-71
2021/10/31 09:02:42;;;;;;;3.70;3.00;;;13.40;99.90;;;;;;5074156;28;20545;-73
2021/10/31 09:05:08;;;;;;;4.53;3.10;;;13.40;99.90;;;;;;5073447;28;20404;-73
2021/10/31 09:07:34;;;;;;;2.90;2.60;;;13.50;99.90;;;;;;5073688;28;20458;-72
2021/10/31 09:10:01;;;;;;;4.13;3.83;;;13.50;99.90;;;;;;5074036;28;20458;-74
2021/10/31 09:12:27;;;;;;;2.73;2.53;;;13.60;99.90;;;;;;5073840;28;20547;-72
2021/10/31 09:14:53;;;;;;;2.73;2.50;;;13.60;99.90;;;;;;5072855;28;20412;-72
2021/10/31 09:17:19;;;;;;;2.77;2.43;;;13.60;99.90;;;;;;5073891;28;20461;-73
2021/10/31 09:19:45;;;;;;;2.53;2.33;;;13.70;99.90;;;;;;5074134;28;20168;-73
2021/10/31 09:22:10;;;;;;;3.10;2.53;;;13.70;99.90;;;;;;5073667;28;20519;-72
2021/10/31 09:24:37;;;;;;;2.67;2.40;;;13.80;99.90;;;;;;5074159;28;20189;-74
2021/10/31 09:27:03;;;;;;;2.63;2.43;;;13.90;99.90;;;;;;5073600;28;20255;-75
2021/10/31 09:29:30;;;;;;;2.97;2.60;;;14.00;99.90;;;;;;5073458;28;20503;-73
2021/10/31 09:31:57;;;;;;;2.23;2.13;;;14.10;99.90;;;;;;5073470;28;20512;-71
2021/10/31 09:34:24;;;;;;;3.30;3.00;;;14.20;99.90;;;;;;5073104;28;20423;-74
2021/10/31 09:36:50;;;;;;;2.37;1.90;;;14.20;99.90;;;;;;5072841;28;20500;-72
2021/10/31 09:39:16;;;;;;;3.70;2.50;;;14.30;99.90;;;;;;5072919;28;20419;-72
2021/10/31 09:41:42;;;;;;;3.07;2.77;;;14.30;99.90;;;;;;5072788;28;20443;-72
2021/10/31 09:44:28;;;;;;;4.53;2.40;;;14.40;99.90;;;;;;5072707;28;20626;-73
2021/10/31 09:46:54;;;;;;;3.10;2.90;;;14.40;99.90;;;;;;5072577;28;20550;-70
2021/10/31 09:49:20;;;;;;;3.43;2.77;;;14.40;99.90;;;;;;5054848;28;20428;-71
2021/10/31 09:51:49;;;;;;;3.43;2.50;;;14.50;99.90;;;;;;5072697;28;20208;-71
2021/10/31 09:54:17;;;;;;;3.13;2.83;;;14.50;99.90;;;;;;5054800;28;20419;-73
2021/10/31 09:56:43;;;;;;;3.67;3.00;;;14.60;99.90;;;;;;5072101;28;20765;-72
2021/10/31 09:59:12;;;;;;;3.70;3.23;;;14.60;99.90;;;;;;5072716;28;20484;-72
2021/10/31 10:04:38;;;;;;;3.50;3.20;;;14.70;99.90;;;;;;5072630;28;20452;-72
2021/10/31 10:07:07;;;;;;;4.03;2.97;;;14.80;99.90;;;;;;5072410;28;20404;-72
2021/10/31 10:09:34;;;;;;;3.73;3.43;;;14.90;99.90;;;;;;5072368;28;20403;-72
2021/10/31 10:12:14;;;;;;;3.93;3.63;;;15.00;99.90;;;;;;5072332;28;20476;-70
2021/10/31 10:14:40;;;;;;;3.90;3.50;;;15.00;99.90;;;;;;5072750;28;20418;-73
2021/10/31 10:17:09;;;;;;;4.03;3.63;;;15.00;99.90;;;;;;5072278;28;20831;-74
2021/10/31 10:19:50;;;;;;;6.40;3.70;;;15.10;99.90;;;;;;5072845;28;20182;-72
2021/10/31 10:22:20;;;;;;;3.97;3.67;;;15.20;99.90;;;;;;5072675;28;20485;-72
2021/10/31 10:24:56;;;;;;;3.60;3.30;;;15.20;99.90;;;;;;5072165;28;20424;-73
2021/10/31 10:27:25;;;;;;;3.60;3.30;;;15.30;99.90;;;;;;5072195;28;20396;-72
2021/10/31 10:29:52;;;;;;;3.60;3.17;;;15.20;99.90;;;;;;5072733;28;20423;-71
2021/10/31 10:32:20;;;;;;;3.37;3.17;;;15.20;99.90;;;;;;5072008;28;20505;-72
2021/10/31 10:34:58;;;;;;;3.80;3.50;;;15.30;99.90;;;;;;5071865;28;20405;-72
2021/10/31 10:37:29;;;;;;;3.47;3.17;;;15.30;99.90;;;;;;5072362;28;20494;-72
2021/10/31 10:40:00;;;;;;;3.40;3.10;;;15.40;99.90;;;;;;5071957;28;20487;-72
2021/10/31 10:42:28;;;;;;;4.40;4.07;;;15.40;99.90;;;;;;5072002;28;20447;-73
2021/10/31 10:44:57;;;;;;;3.20;2.90;;;15.40;99.90;;;;;;5071587;28;20419;-73
2021/10/31 10:47:24;;;;;;;6.43;3.37;;;15.50;99.90;;;;;;5071869;28;20937;-73
2021/10/31 10:49:51;;;;;;;3.73;3.43;;;15.50;99.90;;;;;;5072053;28;20415;-72
2021/10/31 10:52:24;;;;;;;3.47;3.17;;;15.60;99.90;;;;;;5071663;28;20455;-74
2021/10/31 10:55:14;;;;;;;3.50;3.20;;;15.60;99.90;;;;;;5071596;28;20408;-71
2021/10/31 10:57:43;;;;;;;4.27;3.20;;;15.70;99.90;;;;;;5071606;28;20472;-72
2021/10/31 11:00:19;;;;;;;3.53;3.23;;;15.70;99.90;;;;;;5071805;28;20408;-73
2021/10/31 11:03:06;;;;;;;3.47;3.27;;;15.80;99.90;;;;;;5070768;28;20403;-71
2021/10/31 11:05:43;;;;;;;4.20;3.37;;;15.90;99.90;;;;;;5071329;28;20423;-72
2021/10/31 11:08:18;;;;;;;3.23;2.90;;;16.00;99.90;;;;;;5071555;28;20891;-71
2021/10/31 11:10:46;;;;;;;3.10;2.90;;;16.00;99.90;;;;;;5071370;28;20569;-72
2021/10/31 11:13:11;;;;;;;3.60;3.30;;;16.00;99.90;;;;;;5071529;28;20408;-71
2021/10/31 11:15:37;;;;;;;4.03;3.03;;;16.00;99.90;;;;;;5070660;28;20411;-71
2021/10/31 11:18:08;;;;;;;3.33;3.03;;;16.10;99.90;;;;;;5071563;28;20210;-72
2021/10/31 11:20:37;;;;;;;3.00;2.80;;;16.10;99.90;;;;;;5071531;28;20166;-72
2021/10/31 11:23:05;;;;;;;3.00;2.70;;;16.10;99.90;;;;;;5071352;28;20773;-72
2021/10/31 11:25:36;;;;;;;4.27;3.03;;;16.10;99.90;;;;;;5071078;28;20909;-71
2021/10/31 11:28:05;;;;;;;4.00;3.70;;;16.10;99.90;;;;;;5071741;28;20407;-72
2021/10/31 11:30:33;;;;;;;5.33;4.57;;;16.20;99.90;;;;;;5071025;28;20411;-72
2021/10/31 11:33:00;;;;;;;5.73;5.23;;;16.30;99.90;;;;;;5071175;28;20924;-72
2021/10/31 11:35:27;;;;;;;3.30;3.00;;;16.30;99.90;;;;;;5071039;28;20419;-71
2021/10/31 11:38:02;;;;;;;3.83;3.53;;;16.40;99.90;;;;;;5071069;28;20506;-72
2021/10/31 11:40:36;;;;;;;3.10;2.90;;;16.40;99.90;;;;;;5071145;28;20395;-71
2021/10/31 11:43:05;;;;;;;3.17;2.97;;;16.40;99.90;;;;;;5071598;28;20411;-72
2021/10/31 11:45:33;;;;;;;3.13;2.90;;;16.40;99.90;;;;;;5071050;28;20416;-72
2021/10/31 11:48:20;;;;;;;3.00;2.80;;;16.40;99.90;;;;;;5071090;28;20408;-72
2021/10/31 11:51:01;;;;;;;2.90;2.70;;;16.30;99.90;;;;;;5071739;28;20462;-71
2021/10/31 11:54:03;;;;;;;3.17;2.97;;;16.40;99.90;;;;;;5071756;28;20414;-72
2021/10/31 11:56:31;;;;;;;3.00;2.80;;;16.30;99.90;;;;;;5070996;28;20896;-72
2021/10/31 11:59:07;;;;;;;3.00;2.70;;;16.40;99.90;;;;;;5071838;28;20915;-71
2021/10/31 12:01:34;;;;;;;3.27;2.97;;;16.30;99.90;;;;;;5071267;28;20432;-72
2021/10/31 12:04:03;;;;;;;3.73;2.97;;;16.30;99.90;;;;;;5071181;28;20407;-71
2021/10/31 12:06:28;;;;;;;3.27;2.97;;;16.30;99.90;;;;;;5071038;28;20407;-71
2021/10/31 12:08:59;;;;;;;2.93;2.70;;;16.30;99.90;;;;;;5070791;28;20900;-72
2021/10/31 12:11:37;;;;;;;4.50;2.50;;;16.20;99.90;;;;;;5071175;28;20212;-71
2021/10/31 12:14:13;;;;;;;2.80;2.60;;;16.20;99.90;;;;;;5071160;28;20844;-71
2021/10/31 12:16:58;;;;;;;3.53;3.27;;;16.30;99.90;;;;;;5072924;28;20950;-70
2021/10/31 12:19:40;;;;;;;3.33;3.10;;;16.30;99.90;;;;;;5074485;28;20491;-71
2021/10/31 12:22:14;;;;;;;3.50;3.20;;;16.30;99.90;;;;;;5074350;28;20425;-72
2021/10/31 12:24:43;;;;;;;4.20;3.20;;;16.30;99.90;;;;;;5074420;28;20400;-69
2021/10/31 12:27:14;;;;;;;3.70;3.20;;;16.40;99.90;;;;;;5074247;28;20418;-71
2021/10/31 12:29:44;;;;;;;4.40;2.97;;;16.30;99.90;;;;;;5074046;28;20420;-71
2021/10/31 12:32:17;;;;;;;3.40;3.10;;;16.40;99.90;;;;;;5039356;28;20538;-71
2021/10/31 12:34:47;;;;;;;2.53;2.33;;;16.40;99.90;;;;;;5074069;28;20814;-71
2021/10/31 12:37:21;;;;;;;3.90;3.60;;;16.40;99.90;;;;;;5074284;28;20438;-71
2021/10/31 12:39:48;;;;;;;7.20;2.60;;;16.50;99.90;;;;;;5056300;28;20426;-72
2021/10/31 12:42:15;;;;;;;2.77;2.57;;;16.50;99.90;;;;;;5073638;28;20451;-72
2021/10/31 12:44:43;;;;;;;3.23;2.80;;;16.50;99.90;;;;;;5074117;28;20415;-72
2021/10/31 12:47:13;;;;;;;2.53;2.33;;;16.50;99.90;;;;;;5074214;28;20418;-72
2021/10/31 12:49:39;;;;;;;3.03;2.83;;;16.50;99.90;;;;;;5072736;28;20398;-72
2021/10/31 12:52:20;;;;;;;2.57;2.37;;;16.50;99.90;;;;;;5074405;28;20463;-73
2021/10/31 12:54:55;;;;;;;4.97;3.37;;;16.50;99.90;;;;;;5074090;28;20753;-73